sensor_id;sensor_type;location;lat;lon;timestamp;temperature;humidity
35395;DHT22;21500;45.308;9.488;2023-05-07T00:01:38;19.80;99.90
35395;DHT22;21500;45.308;9.488;2023-05-07T00:04:04;19.80;99.90
35395;DHT22;21500;45.308;9.488;2023-05-07T00:06:31;19.80;99.90
35395;DHT22;21500;45.308;9.488;2023-05-07T00:08:58;19.80;99.90
35395;DHT22;21500;45.308;9.488;2023-05-07T00:11:23;19.80;99.90
35395;DHT22;21500;45.308;9.488;2023-05-07T00:13:49;19.90;99.90
35395;DHT22;21500;45.308;9.488;2023-05-07T00:16:15;19.80;99.90
35395;DHT22;21500;45.308;9.488;2023-05-07T00:18:41;19.80;99.90
35395;DHT22;21500;45.308;9.488;2023-05-07T00:21:06;19.70;99.90
35395;DHT22;21500;45.308;9.488;2023-05-07T00:23:32;19.70;99.90
35395;DHT22;21500;45.308;9.488;2023-05-07T00:25:58;19.60;99.90
35395;DHT22;21500;45.308;9.488;2023-05-07T00:28:23;19.60;99.90
35395;DHT22;21500;45.308;9.488;2023-05-07T00:30:49;19.60;99.90
35395;DHT22;21500;45.308;9.488;2023-05-07T00:33:14;19.60;99.90
35395;DHT22;21500;45.308;9.488;2023-05-07T00:35:41;19.60;99.90
35395;DHT22;21500;45.308;9.488;2023-05-07T00:38:07;19.60;99.90
35395;DHT22;21500;45.308;9.488;2023-05-07T00:40:33;19.50;99.90
35395;DHT22;21500;45.308;9.488;2023-05-07T00:42:59;19.40;99.90
35395;DHT22;21500;45.308;9.488;2023-05-07T00:45:26;19.40;99.90
35395;DHT22;21500;45.308;9.488;2023-05-07T00:47:54;19.40;99.90
35395;DHT22;21500;45.308;9.488;2023-05-07T00:50:19;19.40;99.90
35395;DHT22;21500;45.308;9.488;2023-05-07T00:52:45;19.50;99.90
35395;DHT22;21500;45.308;9.488;2023-05-07T00:55:11;19.50;99.90
35395;DHT22;21500;45.308;9.488;2023-05-07T00:57:39;19.50;99.90
35395;DHT22;21500;45.308;9.488;2023-05-07T01:00:06;19.50;99.90
35395;DHT22;21500;45.308;9.488;2023-05-07T01:02:34;19.50;99.90
35395;DHT22;21500;45.308;9.488;2023-05-07T01:05:01;19.50;99.90
35395;DHT22;21500;45.308;9.488;2023-05-07T01:07:29;19.50;99.90
35395;DHT22;21500;45.308;9.488;2023-05-07T01:09:55;19.50;99.90
35395;DHT22;21500;45.308;9.488;2023-05-07T01:12:21;19.50;99.90
35395;DHT22;21500;45.308;9.488;2023-05-07T01:14:46;19.50;99.90
35395;DHT22;21500;45.308;9.488;2023-05-07T01:17:14;19.50;99.90
35395;DHT22;21500;45.308;9.488;2023-05-07T01:19:40;19.50;99.90
35395;DHT22;21500;45.308;9.488;2023-05-07T01:22:07;19.50;99.90
35395;DHT22;21500;45.308;9.488;2023-05-07T01:24:43;19.50;99.90
35395;DHT22;21500;45.308;9.488;2023-05-07T01:27:09;19.50;99.90
35395;DHT22;21500;45.308;9.488;2023-05-07T01:29:36;19.50;99.90
35395;DHT22;21500;45.308;9.488;2023-05-07T01:32:01;19.50;99.90
35395;DHT22;21500;45.308;9.488;2023-05-07T01:34:28;19.50;99.90
35395;DHT22;21500;45.308;9.488;2023-05-07T01:36:55;19.50;99.90
35395;DHT22;21500;45.308;9.488;2023-05-07T01:39:27;19.40;99.90
35395;DHT22;21500;45.308;9.488;2023-05-07T01:41:56;19.40;99.90
35395;DHT22;21500;45.308;9.488;2023-05-07T01:44:23;19.50;99.90
35395;DHT22;21500;45.308;9.488;2023-05-07T01:46:50;19.40;99.90
35395;DHT22;21500;45.308;9.488;2023-05-07T01:49:16;19.50;99.90
35395;DHT22;21500;45.308;9.488;2023-05-07T01:51:42;19.50;99.90
35395;DHT22;21500;45.308;9.488;2023-05-07T01:54:08;19.40;99.90
35395;DHT22;21500;45.308;9.488;2023-05-07T01:56:33;19.50;99.90
35395;DHT22;21500;45.308;9.488;2023-05-07T01:58:59;19.50;99.90
35395;DHT22;21500;45.308;9.488;2023-05-07T02:01:26;19.40;99.90
35395;DHT22;21500;45.308;9.488;2023-05-07T02:03:52;19.40;99.90
35395;DHT22;21500;45.308;9.488;2023-05-07T02:06:23;19.40;99.90
35395;DHT22;21500;45.308;9.488;2023-05-07T02:08:51;19.50;99.90
35395;DHT22;21500;45.308;9.488;2023-05-07T02:11:17;19.50;99.90
35395;DHT22;21500;45.308;9.488;2023-05-07T02:13:43;19.50;99.90
35395;DHT22;21500;45.308;9.488;2023-05-07T02:16:08;19.50;99.90
35395;DHT22;21500;45.308;9.488;2023-05-07T02:18:34;19.60;99.90
35395;DHT22;21500;45.308;9.488;2023-05-07T02:21:01;19.50;99.90
35395;DHT22;21500;45.308;9.488;2023-05-07T02:23:26;19.50;99.90
35395;DHT22;21500;45.308;9.488;2023-05-07T02:25:52;19.50;99.90
35395;DHT22;21500;45.308;9.488;2023-05-07T02:28:18;19.40;99.90
35395;DHT22;21500;45.308;9.488;2023-05-07T02:30:51;19.30;99.90
35395;DHT22;21500;45.308;9.488;2023-05-07T02:33:16;19.40;99.90
35395;DHT22;21500;45.308;9.488;2023-05-07T02:35:42;19.30;99.90
35395;DHT22;21500;45.308;9.488;2023-05-07T02:38:09;19.40;99.90
35395;DHT22;21500;45.308;9.488;2023-05-07T02:40:36;19.30;99.90
35395;DHT22;21500;45.308;9.488;2023-05-07T02:43:07;19.30;99.90
35395;DHT22;21500;45.308;9.488;2023-05-07T02:45:32;19.30;99.90
35395;DHT22;21500;45.308;9.488;2023-05-07T02:48:00;19.20;99.90
35395;DHT22;21500;45.308;9.488;2023-05-07T02:50:25;19.20;99.90
35395;DHT22;21500;45.308;9.488;2023-05-07T02:52:53;19.20;99.90
35395;DHT22;21500;45.308;9.488;2023-05-07T02:55:18;19.20;99.90
35395;DHT22;21500;45.308;9.488;2023-05-07T02:57:44;19.10;99.90
35395;DHT22;21500;45.308;9.488;2023-05-07T03:00:14;19.10;99.90
35395;DHT22;21500;45.308;9.488;2023-05-07T03:02:46;19.10;99.90
35395;DHT22;21500;45.308;9.488;2023-05-07T03:05:12;19.00;99.90
35395;DHT22;21500;45.308;9.488;2023-05-07T03:07:38;19.00;99.90
35395;DHT22;21500;45.308;9.488;2023-05-07T03:10:04;19.00;99.90
35395;DHT22;21500;45.308;9.488;2023-05-07T03:12:30;19.00;99.90
35395;DHT22;21500;45.308;9.488;2023-05-07T03:14:57;18.90;99.90
35395;DHT22;21500;45.308;9.488;2023-05-07T03:17:23;18.90;99.90
35395;DHT22;21500;45.308;9.488;2023-05-07T03:19:48;18.90;99.90
35395;DHT22;21500;45.308;9.488;2023-05-07T03:22:14;18.90;99.90
35395;DHT22;21500;45.308;9.488;2023-05-07T03:24:40;18.90;99.90
35395;DHT22;21500;45.308;9.488;2023-05-07T03:27:06;18.90;99.90
35395;DHT22;21500;45.308;9.488;2023-05-07T03:29:32;18.90;99.90
35395;DHT22;21500;45.308;9.488;2023-05-07T03:31:58;18.90;99.90
35395;DHT22;21500;45.308;9.488;2023-05-07T03:34:23;18.90;99.90
35395;DHT22;21500;45.308;9.488;2023-05-07T03:36:50;18.80;99.90
35395;DHT22;21500;45.308;9.488;2023-05-07T03:39:16;18.80;99.90
35395;DHT22;21500;45.308;9.488;2023-05-07T03:41:42;18.80;99.90
35395;DHT22;21500;45.308;9.488;2023-05-07T03:44:08;18.90;99.90
35395;DHT22;21500;45.308;9.488;2023-05-07T03:46:34;19.00;99.90
35395;DHT22;21500;45.308;9.488;2023-05-07T03:48:59;18.90;99.90
35395;DHT22;21500;45.308;9.488;2023-05-07T03:51:26;18.90;99.90
35395;DHT22;21500;45.308;9.488;2023-05-07T03:53:52;19.00;99.90
35395;DHT22;21500;45.308;9.488;2023-05-07T03:56:19;19.00;99.90
35395;DHT22;21500;45.308;9.488;2023-05-07T03:58:44;19.00;99.90
35395;DHT22;21500;45.308;9.488;2023-05-07T04:01:11;19.00;99.90
35395;DHT22;21500;45.308;9.488;2023-05-07T04:03:37;19.00;99.90
35395;DHT22;21500;45.308;9.488;2023-05-07T04:06:06;19.00;99.90
35395;DHT22;21500;45.308;9.488;2023-05-07T04:08:34;19.00;99.90
35395;DHT22;21500;45.308;9.488;2023-05-07T04:11:00;19.00;99.90
35395;DHT22;21500;45.308;9.488;2023-05-07T04:13:29;19.00;99.90
35395;DHT22;21500;45.308;9.488;2023-05-07T04:15:57;19.00;99.90
35395;DHT22;21500;45.308;9.488;2023-05-07T04:18:23;18.90;99.90
35395;DHT22;21500;45.308;9.488;2023-05-07T04:20:49;18.90;99.90
35395;DHT22;21500;45.308;9.488;2023-05-07T04:23:15;18.90;99.90
35395;DHT22;21500;45.308;9.488;2023-05-07T04:25:41;18.90;99.90
35395;DHT22;21500;45.308;9.488;2023-05-07T04:28:28;18.90;99.90
35395;DHT22;21500;45.308;9.488;2023-05-07T04:30:53;18.80;99.90
35395;DHT22;21500;45.308;9.488;2023-05-07T04:33:20;18.80;99.90
35395;DHT22;21500;45.308;9.488;2023-05-07T04:35:48;18.70;99.90
35395;DHT22;21500;45.308;9.488;2023-05-07T04:38:14;18.60;99.90
35395;DHT22;21500;45.308;9.488;2023-05-07T04:40:40;18.50;99.90
35395;DHT22;21500;45.308;9.488;2023-05-07T04:43:09;18.30;99.90
35395;DHT22;21500;45.308;9.488;2023-05-07T04:45:42;18.40;99.90
35395;DHT22;21500;45.308;9.488;2023-05-07T04:48:09;18.40;99.90
35395;DHT22;21500;45.308;9.488;2023-05-07T04:50:37;18.30;99.90
35395;DHT22;21500;45.308;9.488;2023-05-07T04:53:03;18.30;99.90
35395;DHT22;21500;45.308;9.488;2023-05-07T04:55:29;18.30;99.90
35395;DHT22;21500;45.308;9.488;2023-05-07T04:57:55;18.30;99.90
35395;DHT22;21500;45.308;9.488;2023-05-07T05:00:21;18.30;99.90
35395;DHT22;21500;45.308;9.488;2023-05-07T05:02:49;18.30;99.90
35395;DHT22;21500;45.308;9.488;2023-05-07T05:05:18;18.30;99.90
35395;DHT22;21500;45.308;9.488;2023-05-07T05:07:45;18.30;99.90
35395;DHT22;21500;45.308;9.488;2023-05-07T05:10:11;18.40;99.90
35395;DHT22;21500;45.308;9.488;2023-05-07T05:12:38;18.40;99.90
35395;DHT22;21500;45.308;9.488;2023-05-07T05:15:04;18.40;99.90
35395;DHT22;21500;45.308;9.488;2023-05-07T05:17:31;18.40;99.90
35395;DHT22;21500;45.308;9.488;2023-05-07T05:19:57;18.40;99.90
35395;DHT22;21500;45.308;9.488;2023-05-07T05:22:24;18.40;99.90
35395;DHT22;21500;45.308;9.488;2023-05-07T05:24:52;18.40;99.90
35395;DHT22;21500;45.308;9.488;2023-05-07T05:27:18;18.40;99.90
35395;DHT22;21500;45.308;9.488;2023-05-07T05:29:43;18.50;99.90
35395;DHT22;21500;45.308;9.488;2023-05-07T05:32:09;18.60;99.90
35395;DHT22;21500;45.308;9.488;2023-05-07T05:34:35;18.50;99.90
35395;DHT22;21500;45.308;9.488;2023-05-07T05:37:02;18.60;99.90
35395;DHT22;21500;45.308;9.488;2023-05-07T05:39:28;18.70;99.90
35395;DHT22;21500;45.308;9.488;2023-05-07T05:41:54;18.60;99.90
35395;DHT22;21500;45.308;9.488;2023-05-07T05:44:21;18.70;99.90
35395;DHT22;21500;45.308;9.488;2023-05-07T05:46:46;18.70;99.90
35395;DHT22;21500;45.308;9.488;2023-05-07T05:49:13;18.80;99.90
35395;DHT22;21500;45.308;9.488;2023-05-07T05:51:39;18.70;99.90
35395;DHT22;21500;45.308;9.488;2023-05-07T05:54:05;18.80;99.90
35395;DHT22;21500;45.308;9.488;2023-05-07T05:56:31;18.80;99.90
35395;DHT22;21500;45.308;9.488;2023-05-07T05:58:57;18.80;99.90
35395;DHT22;21500;45.308;9.488;2023-05-07T06:01:24;18.90;99.90
35395;DHT22;21500;45.308;9.488;2023-05-07T06:03:51;19.10;99.90
35395;DHT22;21500;45.308;9.488;2023-05-07T06:06:17;19.30;99.90
35395;DHT22;21500;45.308;9.488;2023-05-07T06:08:43;19.20;99.90
35395;DHT22;21500;45.308;9.488;2023-05-07T06:11:12;19.20;99.90
35395;DHT22;21500;45.308;9.488;2023-05-07T12:15:16;27.00;96.30
35395;DHT22;21500;45.308;9.488;2023-05-07T12:17:42;27.00;95.80
35395;DHT22;21500;45.308;9.488;2023-05-07T13:24:48;26.80;94.20
35395;DHT22;21500;45.308;9.488;2023-05-07T16:46:06;25.30;97.10
35395;DHT22;21500;45.308;9.488;2023-05-07T16:48:32;25.50;97.60
35395;DHT22;21500;45.308;9.488;2023-05-07T16:50:58;25.50;97.90
35395;DHT22;21500;45.308;9.488;2023-05-07T16:53:23;25.30;97.70
35395;DHT22;21500;45.308;9.488;2023-05-07T16:55:49;25.30;97.60
35395;DHT22;21500;45.308;9.488;2023-05-07T16:58:15;25.20;97.30
35395;DHT22;21500;45.308;9.488;2023-05-07T17:00:40;25.20;97.80
35395;DHT22;21500;45.308;9.488;2023-05-07T17:03:06;25.20;97.90
35395;DHT22;21500;45.308;9.488;2023-05-07T17:05:32;25.10;97.70
35395;DHT22;21500;45.308;9.488;2023-05-07T17:07:57;25.00;97.60
35395;DHT22;21500;45.308;9.488;2023-05-07T17:10:23;24.90;97.90
35395;DHT22;21500;45.308;9.488;2023-05-07T17:12:50;24.70;97.90
35395;DHT22;21500;45.308;9.488;2023-05-07T17:15:16;24.60;97.80
35395;DHT22;21500;45.308;9.488;2023-05-07T17:17:41;24.60;97.50
35395;DHT22;21500;45.308;9.488;2023-05-07T17:20:07;24.60;97.70
35395;DHT22;21500;45.308;9.488;2023-05-07T17:22:33;24.50;97.60
35395;DHT22;21500;45.308;9.488;2023-05-07T17:24:58;24.50;97.40
35395;DHT22;21500;45.308;9.488;2023-05-07T17:27:25;24.40;97.40
35395;DHT22;21500;45.308;9.488;2023-05-07T17:29:51;24.40;97.10
35395;DHT22;21500;45.308;9.488;2023-05-07T17:32:17;24.40;97.30
35395;DHT22;21500;45.308;9.488;2023-05-07T17:34:42;24.30;97.30
35395;DHT22;21500;45.308;9.488;2023-05-07T17:37:08;24.40;97.40
35395;DHT22;21500;45.308;9.488;2023-05-07T17:39:34;24.30;97.50
35395;DHT22;21500;45.308;9.488;2023-05-07T17:41:59;24.30;97.50
35395;DHT22;21500;45.308;9.488;2023-05-07T17:44:25;24.20;97.40
35395;DHT22;21500;45.308;9.488;2023-05-07T17:46:50;24.20;97.70
35395;DHT22;21500;45.308;9.488;2023-05-07T17:49:19;24.30;97.70
35395;DHT22;21500;45.308;9.488;2023-05-07T17:51:45;24.20;97.90
35395;DHT22;21500;45.308;9.488;2023-05-07T17:54:10;24.20;98.00
35395;DHT22;21500;45.308;9.488;2023-05-07T17:56:36;24.20;98.00
35395;DHT22;21500;45.308;9.488;2023-05-07T17:59:02;24.20;97.90
35395;DHT22;21500;45.308;9.488;2023-05-07T18:22:56;24.10;99.00
35395;DHT22;21500;45.308;9.488;2023-05-07T18:25:22;24.00;99.10
35395;DHT22;21500;45.308;9.488;2023-05-07T18:27:48;23.90;95.60
35395;DHT22;21500;45.308;9.488;2023-05-07T18:30:13;23.80;94.10
35395;DHT22;21500;45.308;9.488;2023-05-07T18:32:40;23.70;93.40
35395;DHT22;21500;45.308;9.488;2023-05-07T18:35:05;23.60;92.70
35395;DHT22;21500;45.308;9.488;2023-05-07T18:37:31;23.60;92.50
35395;DHT22;21500;45.308;9.488;2023-05-07T18:39:57;23.50;92.00
35395;DHT22;21500;45.308;9.488;2023-05-07T18:42:26;23.40;92.00
35395;DHT22;21500;45.308;9.488;2023-05-07T18:44:53;23.30;91.90
35395;DHT22;21500;45.308;9.488;2023-05-07T18:47:20;23.20;91.70
35395;DHT22;21500;45.308;9.488;2023-05-07T18:49:45;23.20;91.60
35395;DHT22;21500;45.308;9.488;2023-05-07T18:52:11;23.00;91.50
35395;DHT22;21500;45.308;9.488;2023-05-07T18:54:37;23.00;91.50
35395;DHT22;21500;45.308;9.488;2023-05-07T18:57:02;22.90;91.50
35395;DHT22;21500;45.308;9.488;2023-05-07T18:59:28;22.80;91.40
35395;DHT22;21500;45.308;9.488;2023-05-07T19:01:54;22.80;91.40
35395;DHT22;21500;45.308;9.488;2023-05-07T19:04:19;22.70;91.40
35395;DHT22;21500;45.308;9.488;2023-05-07T20:00:46;21.80;90.40
35395;DHT22;21500;45.308;9.488;2023-05-07T20:03:12;21.80;90.70
35395;DHT22;21500;45.308;9.488;2023-05-07T20:05:44;21.70;90.80
35395;DHT22;21500;45.308;9.488;2023-05-07T20:08:10;21.60;90.90
35395;DHT22;21500;45.308;9.488;2023-05-07T20:10:35;21.60;90.90
35395;DHT22;21500;45.308;9.488;2023-05-07T20:13:01;21.60;91.10
35395;DHT22;21500;45.308;9.488;2023-05-07T20:15:27;21.50;90.90
35395;DHT22;21500;45.308;9.488;2023-05-07T20:17:53;21.60;91.00
35395;DHT22;21500;45.308;9.488;2023-05-07T20:20:19;21.50;91.00
35395;DHT22;21500;45.308;9.488;2023-05-07T20:22:44;21.50;91.00
35395;DHT22;21500;45.308;9.488;2023-05-07T20:25:10;21.50;91.00
35395;DHT22;21500;45.308;9.488;2023-05-07T20:27:37;21.50;91.20
35395;DHT22;21500;45.308;9.488;2023-05-07T20:30:05;21.50;91.20
35395;DHT22;21500;45.308;9.488;2023-05-07T20:32:31;21.50;91.10
35395;DHT22;21500;45.308;9.488;2023-05-07T20:34:56;21.50;91.20
35395;DHT22;21500;45.308;9.488;2023-05-07T20:37:24;21.50;91.30
35395;DHT22;21500;45.308;9.488;2023-05-07T20:39:51;21.40;91.50
35395;DHT22;21500;45.308;9.488;2023-05-07T20:42:16;21.40;91.70
35395;DHT22;21500;45.308;9.488;2023-05-07T20:44:42;21.40;91.70
35395;DHT22;21500;45.308;9.488;2023-05-07T20:47:09;21.30;91.80
35395;DHT22;21500;45.308;9.488;2023-05-07T20:49:34;21.40;92.00
35395;DHT22;21500;45.308;9.488;2023-05-07T20:52:00;21.30;92.10
35395;DHT22;21500;45.308;9.488;2023-05-07T20:54:26;21.40;92.20
35395;DHT22;21500;45.308;9.488;2023-05-07T20:56:55;21.40;92.30
35395;DHT22;21500;45.308;9.488;2023-05-07T20:59:22;21.30;92.40
35395;DHT22;21500;45.308;9.488;2023-05-07T21:01:48;21.30;92.60
35395;DHT22;21500;45.308;9.488;2023-05-07T21:04:14;21.20;92.60
35395;DHT22;21500;45.308;9.488;2023-05-07T21:06:40;21.20;92.50
35395;DHT22;21500;45.308;9.488;2023-05-07T21:09:06;21.20;92.60
35395;DHT22;21500;45.308;9.488;2023-05-07T21:11:32;21.10;92.60
35395;DHT22;21500;45.308;9.488;2023-05-07T21:13:58;21.10;92.80
35395;DHT22;21500;45.308;9.488;2023-05-07T21:16:23;21.10;92.70
35395;DHT22;21500;45.308;9.488;2023-05-07T21:18:49;21.00;92.80
35395;DHT22;21500;45.308;9.488;2023-05-07T21:21:15;21.00;92.70
35395;DHT22;21500;45.308;9.488;2023-05-07T21:23:41;21.00;92.80
35395;DHT22;21500;45.308;9.488;2023-05-07T21:26:07;21.10;92.70
35395;DHT22;21500;45.308;9.488;2023-05-07T21:28:32;21.00;92.90
35395;DHT22;21500;45.308;9.488;2023-05-07T21:31:01;21.00;93.10
35395;DHT22;21500;45.308;9.488;2023-05-07T21:33:27;20.90;93.50
35395;DHT22;21500;45.308;9.488;2023-05-07T21:35:52;20.80;93.70
35395;DHT22;21500;45.308;9.488;2023-05-07T21:38:18;20.80;93.80
35395;DHT22;21500;45.308;9.488;2023-05-07T21:40:44;20.80;93.80
35395;DHT22;21500;45.308;9.488;2023-05-07T21:43:10;20.80;93.70
35395;DHT22;21500;45.308;9.488;2023-05-07T21:45:35;20.90;93.70
35395;DHT22;21500;45.308;9.488;2023-05-07T21:48:06;20.80;93.80
35395;DHT22;21500;45.308;9.488;2023-05-07T21:50:31;20.80;94.00
35395;DHT22;21500;45.308;9.488;2023-05-07T21:52:57;20.80;93.90
35395;DHT22;21500;45.308;9.488;2023-05-07T21:55:23;20.80;93.90
35395;DHT22;21500;45.308;9.488;2023-05-07T21:57:48;20.80;94.10
35395;DHT22;21500;45.308;9.488;2023-05-07T22:00:14;20.90;94.20
35395;DHT22;21500;45.308;9.488;2023-05-07T22:02:40;20.90;94.30
35395;DHT22;21500;45.308;9.488;2023-05-07T22:05:06;20.80;94.30
35395;DHT22;21500;45.308;9.488;2023-05-07T22:07:32;20.80;94.40
35395;DHT22;21500;45.308;9.488;2023-05-07T22:09:59;20.80;94.30
35395;DHT22;21500;45.308;9.488;2023-05-07T22:12:25;20.80;94.40
35395;DHT22;21500;45.308;9.488;2023-05-07T22:14:50;20.80;94.60
35395;DHT22;21500;45.308;9.488;2023-05-07T22:17:17;20.80;94.70
35395;DHT22;21500;45.308;9.488;2023-05-07T22:19:42;20.80;94.60
35395;DHT22;21500;45.308;9.488;2023-05-07T22:22:08;20.90;94.60
35395;DHT22;21500;45.308;9.488;2023-05-07T22:24:34;20.80;94.80
35395;DHT22;21500;45.308;9.488;2023-05-07T22:26:59;20.70;95.10
35395;DHT22;21500;45.308;9.488;2023-05-07T22:29:25;20.70;95.20
35395;DHT22;21500;45.308;9.488;2023-05-07T22:31:51;20.70;95.30
35395;DHT22;21500;45.308;9.488;2023-05-07T22:34:16;20.80;95.20
35395;DHT22;21500;45.308;9.488;2023-05-07T22:36:42;20.70;95.10
35395;DHT22;21500;45.308;9.488;2023-05-07T22:39:08;20.80;95.20
35395;DHT22;21500;45.308;9.488;2023-05-07T22:41:34;20.70;95.10
35395;DHT22;21500;45.308;9.488;2023-05-07T22:44:00;20.70;95.30
35395;DHT22;21500;45.308;9.488;2023-05-07T22:46:26;20.70;95.30
35395;DHT22;21500;45.308;9.488;2023-05-07T22:48:52;20.70;95.50
35395;DHT22;21500;45.308;9.488;2023-05-07T22:51:17;20.70;95.50
35395;DHT22;21500;45.308;9.488;2023-05-07T22:53:43;20.60;95.60
35395;DHT22;21500;45.308;9.488;2023-05-07T22:56:10;20.60;95.80
35395;DHT22;21500;45.308;9.488;2023-05-07T22:58:35;20.60;95.80
35395;DHT22;21500;45.308;9.488;2023-05-07T23:01:01;20.60;95.70
35395;DHT22;21500;45.308;9.488;2023-05-07T23:03:27;20.60;95.80
35395;DHT22;21500;45.308;9.488;2023-05-07T23:05:52;20.60;95.90
35395;DHT22;21500;45.308;9.488;2023-05-07T23:08:18;20.60;96.10
35395;DHT22;21500;45.308;9.488;2023-05-07T23:10:44;20.50;95.90
35395;DHT22;21500;45.308;9.488;2023-05-07T23:13:09;20.50;96.10
35395;DHT22;21500;45.308;9.488;2023-05-07T23:15:41;20.50;96.30
35395;DHT22;21500;45.308;9.488;2023-05-07T23:18:07;20.50;95.90
35395;DHT22;21500;45.308;9.488;2023-05-07T23:20:33;20.60;95.90
35395;DHT22;21500;45.308;9.488;2023-05-07T23:22:58;20.60;95.70
35395;DHT22;21500;45.308;9.488;2023-05-07T23:25:24;20.60;95.80
35395;DHT22;21500;45.308;9.488;2023-05-07T23:27:50;20.60;95.90
35395;DHT22;21500;45.308;9.488;2023-05-07T23:30:15;20.50;96.10
35395;DHT22;21500;45.308;9.488;2023-05-07T23:32:41;20.70;96.10
35395;DHT22;21500;45.308;9.488;2023-05-07T23:35:07;20.70;95.90
35395;DHT22;21500;45.308;9.488;2023-05-07T23:37:33;20.70;95.80
35395;DHT22;21500;45.308;9.488;2023-05-07T23:39:58;20.60;96.50
35395;DHT22;21500;45.308;9.488;2023-05-07T23:42:24;20.50;97.80
35395;DHT22;21500;45.308;9.488;2023-05-07T23:44:50;20.30;99.10
35395;DHT22;21500;45.308;9.488;2023-05-07T23:47:16;20.30;99.50
35395;DHT22;21500;45.308;9.488;2023-05-07T23:49:41;20.30;99.90
35395;DHT22;21500;45.308;9.488;2023-05-07T23:52:07;20.10;99.90
35395;DHT22;21500;45.308;9.488;2023-05-07T23:54:33;20.00;99.90
35395;DHT22;21500;45.308;9.488;2023-05-07T23:56:58;20.00;99.90
35395;DHT22;21500;45.308;9.488;2023-05-07T23:59:24;19.90;99.90
